Terminal Aerodrome Forecast
Issued by NWS

Home | Current Version | Previous Version | Text Only | Print | Product List | Glossary On
Versions: 1 2 3 4 5 6 7 8 9 10 11 12 13
000
FTUS46 KOTX 221739
TAFCOE
TAF
KCOE 221739Z 2218/2318 01017KT P6SM SCT040 BKN080
     FM230000 01010KT P6SM SCT060
     FM230700 02006KT P6SM FEW070
     FM231000 05004KT 6SM PRFG SCT002=

USA.gov is the U.S. government's official web portal to all federal, state and local government web resources and services.